Wendover, Kentucky
Current Conditions -  °F | °C
As of 12:15 PM on Sunday 23 Nov 2014 (Local Time) from KI35 Reporting Station
Overcast Overcast  
Wind Chill: 55°   Ceiling: 8000
Heat Index: 55°   Visibility: 10mi
Dew Point: 43°   Wind: 12mph
Humidity: 63%   Direction: 110°ESE
Pressure: 29.92"   Gusts: 21mph
Location:  37.13°N, 83.36°W
Report Text: KI35 231715Z AUTO 11010G18KT 060V160 10SM SCT050 SCT070 OVC080 13/06 A2992 RMK AO1
Loading
Personal Weather Stations






























Interactive Weather Map New forecast layout! Learn more

10-Day Weather Forecast

Advertisements
Track Severe Weather on mobile